Piseco, NY (12139)

8:50 PM EST on January 30, 2015 (GMT -0500)
RAWS LAKE PLEASANT NY US | Change Station
CLOSE
Current Station
Personal Weather Station
Location: Piseco, NY
Elevation: 1799 ft
Nearby Weather Stations
Active Advisory: Wind Chill Warning Active Notice: Public Information Statement

Elev 1799 ft 43.47 °N, 74.41 °W | Updated 50 minutes ago

Mostly Cloudy
Mostly Cloudy
4 °F
Feels Like -10 °F
N
9
Wind Variable Wind from NW
Gusts 18.0 mph

Today
High -- | Low -- °F
--% Chance of Precip.
Yesterday
High -- | Low -- °F
Precip. -- in
7:16 AM 5:06 PM
Waxing Gibbous, 86% visible
Pressure 30.21 in
Visibility 10.0 miles
Clouds Few 3300 ft
Windchill -10 °F
Dew Point -6 °F
Humidity 63%
Rainfall 0.00 in
Snow Depth Not available.
UV 0 out of 12
Pollen .10 out of 12
Air Quality Not available.
Flu Activity Not available.
METAR KRME 310053Z 33011KT 10SM FEW033 M13/M18 A3019 RMK AO2 SLP229 T11281178

More Conditions Fewer Conditions

Pressure 30.21 in
Visibility 10.0 miles
Clouds Few 3300 ft
Windchill -10 °F
Dew Point -6 °F
Humidity 63%
Rainfall 0.00 in
Snow Depth Not available.
UV 0 out of 12
Pollen .10 out of 12
Air Quality Not available.
Flu Activity Not available.
METAR KRME 310053Z 33011KT 10SM FEW033 M13/M18 A3019 RMK AO2 SLP229 T11281178

More Conditions Fewer Conditions

10-Day Weather Forecast

Almanac

Astronomy

Jan. 30, 2015 Rise Set
Actual Time
Civil Twilight
Nautical Twilight
Astronomical Twilight
Moon
Length of Visible Light
Length of Day
Tomorrow will be .
, % of the Moon is Illuminated

Today's Extremes

State Highs State Lows

Community

WunderPhotos

Upload Photos

1,791,964 photos uploaded!

WunderBlogs® & News

Nearby

Air Quality

  Air Quality AQ Index Pollutant
Not available.

Snow Depth

Station Depth Elevation

Earthquake Activity

City Distance Mag. Time & Date
Minimum magnitude displayed is 2.5.

Coastal Water Temperatures

Place Temperature

Nearby Weather Stations